sensor_id;sensor_type;location;lat;lon;timestamp;P1;durP1;ratioP1;P2;durP2;ratioP2
65328;SDS011;51941;52.210;5.158;2023-05-19T00:02:13;7.93;;;3.38;;
65328;SDS011;51941;52.210;5.158;2023-05-19T00:04:40;7.45;;;3.70;;
65328;SDS011;51941;52.210;5.158;2023-05-19T00:07:07;9.15;;;3.72;;
65328;SDS011;51941;52.210;5.158;2023-05-19T00:09:36;9.80;;;3.40;;
65328;SDS011;51941;52.210;5.158;2023-05-19T00:12:03;10.63;;;3.83;;
65328;SDS011;51941;52.210;5.158;2023-05-19T00:14:31;12.93;;;3.90;;
65328;SDS011;51941;52.210;5.158;2023-05-19T00:16:58;9.32;;;3.70;;
65328;SDS011;51941;52.210;5.158;2023-05-19T00:19:27;6.65;;;3.40;;
65328;SDS011;51941;52.210;5.158;2023-05-19T00:21:56;10.35;;;3.80;;
65328;SDS011;51941;52.210;5.158;2023-05-19T00:24:23;9.07;;;3.97;;
65328;SDS011;51941;52.210;5.158;2023-05-19T00:26:49;12.32;;;3.95;;
65328;SDS011;51941;52.210;5.158;2023-05-19T00:29:16;11.38;;;4.32;;
65328;SDS011;51941;52.210;5.158;2023-05-19T00:31:43;11.82;;;3.85;;
65328;SDS011;51941;52.210;5.158;2023-05-19T00:34:10;10.27;;;4.00;;
65328;SDS011;51941;52.210;5.158;2023-05-19T00:36:38;12.63;;;4.45;;
65328;SDS011;51941;52.210;5.158;2023-05-19T00:39:05;11.02;;;3.97;;
65328;SDS011;51941;52.210;5.158;2023-05-19T00:41:31;10.48;;;3.80;;
65328;SDS011;51941;52.210;5.158;2023-05-19T00:43:58;15.23;;;4.47;;
65328;SDS011;51941;52.210;5.158;2023-05-19T00:46:25;7.65;;;3.80;;
65328;SDS011;51941;52.210;5.158;2023-05-19T00:48:52;9.43;;;3.47;;
65328;SDS011;51941;52.210;5.158;2023-05-19T00:51:18;13.63;;;4.22;;
65328;SDS011;51941;52.210;5.158;2023-05-19T00:53:47;13.07;;;4.45;;
65328;SDS011;51941;52.210;5.158;2023-05-19T00:56:16;13.02;;;4.35;;
65328;SDS011;51941;52.210;5.158;2023-05-19T00:58:43;11.63;;;4.18;;
65328;SDS011;51941;52.210;5.158;2023-05-19T01:01:10;10.15;;;4.43;;
65328;SDS011;51941;52.210;5.158;2023-05-19T01:03:38;10.20;;;4.32;;
65328;SDS011;51941;52.210;5.158;2023-05-19T01:06:06;12.20;;;3.95;;
65328;SDS011;51941;52.210;5.158;2023-05-19T01:08:34;12.23;;;4.40;;
65328;SDS011;51941;52.210;5.158;2023-05-19T01:11:03;12.43;;;4.47;;
65328;SDS011;51941;52.210;5.158;2023-05-19T01:13:30;8.77;;;4.50;;
65328;SDS011;51941;52.210;5.158;2023-05-19T01:15:59;10.13;;;4.40;;
65328;SDS011;51941;52.210;5.158;2023-05-19T01:27:35;13.48;;;5.47;;
65328;SDS011;51941;52.210;5.158;2023-05-19T01:30:29;10.98;;;4.50;;
65328;SDS011;51941;52.210;5.158;2023-05-19T01:33:02;9.10;;;4.85;;
65328;SDS011;51941;52.210;5.158;2023-05-19T01:35:32;14.43;;;5.30;;
65328;SDS011;51941;52.210;5.158;2023-05-19T01:38:01;14.02;;;5.57;;
65328;SDS011;51941;52.210;5.158;2023-05-19T01:40:29;9.65;;;4.80;;
65328;SDS011;51941;52.210;5.158;2023-05-19T01:42:57;13.93;;;5.20;;
65328;SDS011;51941;52.210;5.158;2023-05-19T01:45:26;15.85;;;4.93;;
65328;SDS011;51941;52.210;5.158;2023-05-19T01:47:56;11.00;;;5.07;;
65328;SDS011;51941;52.210;5.158;2023-05-19T01:50:25;10.90;;;4.80;;
65328;SDS011;51941;52.210;5.158;2023-05-19T01:52:53;9.35;;;4.70;;
65328;SDS011;51941;52.210;5.158;2023-05-19T01:55:20;13.15;;;5.38;;
65328;SDS011;51941;52.210;5.158;2023-05-19T01:57:50;11.35;;;4.68;;
65328;SDS011;51941;52.210;5.158;2023-05-19T02:00:28;11.90;;;5.45;;
65328;SDS011;51941;52.210;5.158;2023-05-19T02:03:06;14.90;;;5.30;;
65328;SDS011;51941;52.210;5.158;2023-05-19T02:05:39;10.43;;;4.88;;
65328;SDS011;51941;52.210;5.158;2023-05-19T02:08:19;8.00;;;5.30;;
65328;SDS011;51941;52.210;5.158;2023-05-19T02:10:54;16.02;;;6.03;;
65328;SDS011;51941;52.210;5.158;2023-05-19T02:13:26;12.88;;;5.18;;
65328;SDS011;51941;52.210;5.158;2023-05-19T02:15:58;13.00;;;6.05;;
65328;SDS011;51941;52.210;5.158;2023-05-19T02:18:29;10.75;;;5.63;;
65328;SDS011;51941;52.210;5.158;2023-05-19T02:20:58;14.07;;;5.97;;
65328;SDS011;51941;52.210;5.158;2023-05-19T02:23:25;15.07;;;5.32;;
65328;SDS011;51941;52.210;5.158;2023-05-19T02:25:51;14.20;;;5.75;;
65328;SDS011;51941;52.210;5.158;2023-05-19T02:28:18;11.63;;;5.45;;
65328;SDS011;51941;52.210;5.158;2023-05-19T02:30:45;12.20;;;5.45;;
65328;SDS011;51941;52.210;5.158;2023-05-19T02:33:13;12.57;;;5.78;;
65328;SDS011;51941;52.210;5.158;2023-05-19T02:35:41;13.05;;;6.22;;
65328;SDS011;51941;52.210;5.158;2023-05-19T02:38:08;18.30;;;6.32;;
65328;SDS011;51941;52.210;5.158;2023-05-19T02:40:35;12.40;;;5.78;;
65328;SDS011;51941;52.210;5.158;2023-05-19T02:43:02;10.18;;;6.18;;
65328;SDS011;51941;52.210;5.158;2023-05-19T02:45:28;15.55;;;6.28;;
65328;SDS011;51941;52.210;5.158;2023-05-19T02:47:56;13.35;;;5.57;;
65328;SDS011;51941;52.210;5.158;2023-05-19T02:50:25;13.68;;;5.65;;
65328;SDS011;51941;52.210;5.158;2023-05-19T02:52:52;17.85;;;6.50;;
65328;SDS011;51941;52.210;5.158;2023-05-19T02:55:19;12.75;;;6.40;;
65328;SDS011;51941;52.210;5.158;2023-05-19T02:57:45;15.68;;;6.82;;
65328;SDS011;51941;52.210;5.158;2023-05-19T03:00:12;17.10;;;6.88;;
65328;SDS011;51941;52.210;5.158;2023-05-19T03:02:40;14.05;;;6.80;;
65328;SDS011;51941;52.210;5.158;2023-05-19T03:05:08;14.77;;;6.78;;
65328;SDS011;51941;52.210;5.158;2023-05-19T03:07:36;18.75;;;7.05;;
65328;SDS011;51941;52.210;5.158;2023-05-19T03:10:03;13.05;;;7.03;;
65328;SDS011;51941;52.210;5.158;2023-05-19T03:12:32;11.57;;;6.95;;
65328;SDS011;51941;52.210;5.158;2023-05-19T03:14:59;18.63;;;6.80;;
65328;SDS011;51941;52.210;5.158;2023-05-19T03:17:26;13.35;;;7.13;;
65328;SDS011;51941;52.210;5.158;2023-05-19T03:19:58;14.27;;;6.75;;
65328;SDS011;51941;52.210;5.158;2023-05-19T03:22:25;14.98;;;6.95;;
65328;SDS011;51941;52.210;5.158;2023-05-19T03:24:53;14.05;;;7.57;;
65328;SDS011;51941;52.210;5.158;2023-05-19T03:27:20;13.40;;;7.22;;
65328;SDS011;51941;52.210;5.158;2023-05-19T03:29:46;16.73;;;7.50;;
65328;SDS011;51941;52.210;5.158;2023-05-19T03:32:13;14.50;;;7.78;;
65328;SDS011;51941;52.210;5.158;2023-05-19T03:34:40;16.35;;;7.25;;
65328;SDS011;51941;52.210;5.158;2023-05-19T03:37:06;15.45;;;7.53;;
65328;SDS011;51941;52.210;5.158;2023-05-19T03:39:36;16.50;;;7.93;;
65328;SDS011;51941;52.210;5.158;2023-05-19T03:42:05;12.13;;;7.45;;
65328;SDS011;51941;52.210;5.158;2023-05-19T03:44:32;13.38;;;7.25;;
65328;SDS011;51941;52.210;5.158;2023-05-19T03:46:59;18.27;;;7.47;;
65328;SDS011;51941;52.210;5.158;2023-05-19T03:49:28;13.05;;;7.32;;
65328;SDS011;51941;52.210;5.158;2023-05-19T03:52:18;15.75;;;7.95;;
65328;SDS011;51941;52.210;5.158;2023-05-19T03:54:52;20.08;;;8.05;;
65328;SDS011;51941;52.210;5.158;2023-05-19T03:57:20;16.88;;;7.43;;
65328;SDS011;51941;52.210;5.158;2023-05-19T03:59:46;16.40;;;7.65;;
65328;SDS011;51941;52.210;5.158;2023-05-19T04:02:13;16.73;;;7.82;;
65328;SDS011;51941;52.210;5.158;2023-05-19T04:04:40;13.82;;;7.35;;
65328;SDS011;51941;52.210;5.158;2023-05-19T04:07:06;16.60;;;7.50;;
65328;SDS011;51941;52.210;5.158;2023-05-19T04:09:33;16.65;;;8.05;;
65328;SDS011;51941;52.210;5.158;2023-05-19T04:12:01;10.80;;;6.85;;
65328;SDS011;51941;52.210;5.158;2023-05-19T04:14:29;14.82;;;7.57;;
65328;SDS011;51941;52.210;5.158;2023-05-19T04:16:56;16.77;;;8.18;;
65328;SDS011;51941;52.210;5.158;2023-05-19T04:19:23;16.65;;;7.70;;
65328;SDS011;51941;52.210;5.158;2023-05-19T04:21:49;17.00;;;7.55;;
65328;SDS011;51941;52.210;5.158;2023-05-19T04:24:16;23.48;;;8.20;;
65328;SDS011;51941;52.210;5.158;2023-05-19T04:26:43;15.35;;;7.97;;
65328;SDS011;51941;52.210;5.158;2023-05-19T04:29:13;13.55;;;8.13;;
65328;SDS011;51941;52.210;5.158;2023-05-19T04:31:43;16.73;;;8.70;;
65328;SDS011;51941;52.210;5.158;2023-05-19T04:34:10;22.08;;;8.45;;
65328;SDS011;51941;52.210;5.158;2023-05-19T04:36:37;17.20;;;8.27;;
65328;SDS011;51941;52.210;5.158;2023-05-19T04:39:04;19.60;;;9.38;;
65328;SDS011;51941;52.210;5.158;2023-05-19T04:41:32;16.02;;;8.23;;
65328;SDS011;51941;52.210;5.158;2023-05-19T04:44:00;15.32;;;7.95;;
65328;SDS011;51941;52.210;5.158;2023-05-19T04:46:28;16.33;;;7.82;;
65328;SDS011;51941;52.210;5.158;2023-05-19T04:48:57;16.55;;;8.02;;
65328;SDS011;51941;52.210;5.158;2023-05-19T04:51:25;20.08;;;8.15;;
65328;SDS011;51941;52.210;5.158;2023-05-19T04:53:53;12.85;;;7.43;;
65328;SDS011;51941;52.210;5.158;2023-05-19T04:56:20;11.43;;;6.80;;
65328;SDS011;51941;52.210;5.158;2023-05-19T04:58:46;14.48;;;7.18;;
65328;SDS011;51941;52.210;5.158;2023-05-19T05:01:13;13.90;;;6.72;;
65328;SDS011;51941;52.210;5.158;2023-05-19T05:03:41;14.07;;;6.82;;
65328;SDS011;51941;52.210;5.158;2023-05-19T05:06:10;16.15;;;6.75;;
65328;SDS011;51941;52.210;5.158;2023-05-19T05:08:37;9.48;;;6.38;;
65328;SDS011;51941;52.210;5.158;2023-05-19T05:11:05;14.30;;;6.45;;
65328;SDS011;51941;52.210;5.158;2023-05-19T05:13:33;11.05;;;6.38;;
65328;SDS011;51941;52.210;5.158;2023-05-19T05:16:00;14.27;;;6.53;;
65328;SDS011;51941;52.210;5.158;2023-05-19T05:18:29;12.95;;;6.63;;
65328;SDS011;51941;52.210;5.158;2023-05-19T05:20:56;11.13;;;6.40;;
65328;SDS011;51941;52.210;5.158;2023-05-19T05:23:25;12.65;;;6.47;;
65328;SDS011;51941;52.210;5.158;2023-05-19T05:25:53;13.60;;;6.32;;
65328;SDS011;51941;52.210;5.158;2023-05-19T05:28:20;14.73;;;7.15;;
65328;SDS011;51941;52.210;5.158;2023-05-19T05:30:47;11.27;;;6.75;;
65328;SDS011;51941;52.210;5.158;2023-05-19T05:33:14;15.27;;;7.50;;
65328;SDS011;51941;52.210;5.158;2023-05-19T05:35:42;14.15;;;7.07;;
65328;SDS011;51941;52.210;5.158;2023-05-19T05:38:10;12.93;;;7.18;;
65328;SDS011;51941;52.210;5.158;2023-05-19T05:40:39;14.73;;;7.25;;
65328;SDS011;51941;52.210;5.158;2023-05-19T05:43:07;15.23;;;7.37;;
65328;SDS011;51941;52.210;5.158;2023-05-19T05:45:40;16.50;;;7.32;;
65328;SDS011;51941;52.210;5.158;2023-05-19T05:48:07;17.38;;;7.55;;
65328;SDS011;51941;52.210;5.158;2023-05-19T05:50:35;13.90;;;7.28;;
65328;SDS011;51941;52.210;5.158;2023-05-19T05:53:02;13.45;;;7.28;;
65328;SDS011;51941;52.210;5.158;2023-05-19T05:55:33;16.13;;;7.75;;
65328;SDS011;51941;52.210;5.158;2023-05-19T05:58:01;14.40;;;7.47;;
65328;SDS011;51941;52.210;5.158;2023-05-19T06:00:28;11.00;;;6.85;;
65328;SDS011;51941;52.210;5.158;2023-05-19T06:02:55;14.57;;;7.60;;
65328;SDS011;51941;52.210;5.158;2023-05-19T06:05:24;13.23;;;6.35;;
65328;SDS011;51941;52.210;5.158;2023-05-19T06:07:52;10.75;;;6.68;;
65328;SDS011;51941;52.210;5.158;2023-05-19T06:10:23;10.73;;;6.55;;
65328;SDS011;51941;52.210;5.158;2023-05-19T06:12:51;11.75;;;6.72;;
65328;SDS011;51941;52.210;5.158;2023-05-19T06:15:21;11.65;;;6.43;;
65328;SDS011;51941;52.210;5.158;2023-05-19T06:18:05;12.43;;;5.75;;
65328;SDS011;51941;52.210;5.158;2023-05-19T06:20:31;10.77;;;5.63;;
65328;SDS011;51941;52.210;5.158;2023-05-19T06:22:58;11.63;;;6.00;;
65328;SDS011;51941;52.210;5.158;2023-05-19T06:25:27;10.05;;;5.50;;
65328;SDS011;51941;52.210;5.158;2023-05-19T06:27:55;9.07;;;5.55;;
65328;SDS011;51941;52.210;5.158;2023-05-19T06:30:23;12.10;;;5.20;;
65328;SDS011;51941;52.210;5.158;2023-05-19T06:33:26;10.63;;;4.68;;
65328;SDS011;51941;52.210;5.158;2023-05-19T06:35:53;9.75;;;5.05;;
65328;SDS011;51941;52.210;5.158;2023-05-19T06:38:20;8.48;;;4.80;;
65328;SDS011;51941;52.210;5.158;2023-05-19T06:40:46;10.73;;;5.00;;
65328;SDS011;51941;52.210;5.158;2023-05-19T06:43:13;8.65;;;4.47;;
65328;SDS011;51941;52.210;5.158;2023-05-19T06:46:01;10.02;;;4.63;;
65328;SDS011;51941;52.210;5.158;2023-05-19T06:48:30;7.07;;;4.40;;
65328;SDS011;51941;52.210;5.158;2023-05-19T06:50:57;8.55;;;4.97;;
65328;SDS011;51941;52.210;5.158;2023-05-19T06:53:25;6.80;;;4.28;;
65328;SDS011;51941;52.210;5.158;2023-05-19T06:55:53;9.02;;;4.40;;
65328;SDS011;51941;52.210;5.158;2023-05-19T06:58:21;10.53;;;4.27;;
65328;SDS011;51941;52.210;5.158;2023-05-19T07:00:48;10.30;;;3.92;;
65328;SDS011;51941;52.210;5.158;2023-05-19T07:03:17;7.22;;;3.83;;
65328;SDS011;51941;52.210;5.158;2023-05-19T07:05:44;8.50;;;4.70;;
65328;SDS011;51941;52.210;5.158;2023-05-19T07:08:12;8.60;;;4.18;;
65328;SDS011;51941;52.210;5.158;2023-05-19T07:10:39;8.73;;;4.15;;
65328;SDS011;51941;52.210;5.158;2023-05-19T07:13:10;10.48;;;4.18;;
65328;SDS011;51941;52.210;5.158;2023-05-19T07:15:37;9.50;;;4.30;;
65328;SDS011;51941;52.210;5.158;2023-05-19T07:18:04;8.75;;;4.10;;
65328;SDS011;51941;52.210;5.158;2023-05-19T07:20:32;10.93;;;4.25;;
65328;SDS011;51941;52.210;5.158;2023-05-19T07:22:59;12.02;;;4.07;;
65328;SDS011;51941;52.210;5.158;2023-05-19T07:25:26;6.78;;;3.90;;
65328;SDS011;51941;52.210;5.158;2023-05-19T07:27:54;8.32;;;4.35;;
65328;SDS011;51941;52.210;5.158;2023-05-19T07:30:21;11.63;;;4.32;;
65328;SDS011;51941;52.210;5.158;2023-05-19T07:32:48;8.77;;;4.28;;
65328;SDS011;51941;52.210;5.158;2023-05-19T07:35:15;9.40;;;4.22;;
65328;SDS011;51941;52.210;5.158;2023-05-19T07:37:43;12.18;;;4.40;;
65328;SDS011;51941;52.210;5.158;2023-05-19T07:40:10;7.25;;;3.72;;
65328;SDS011;51941;52.210;5.158;2023-05-19T07:42:37;9.95;;;4.13;;
65328;SDS011;51941;52.210;5.158;2023-05-19T07:45:08;9.45;;;3.70;;
65328;SDS011;51941;52.210;5.158;2023-05-19T07:47:35;11.27;;;4.32;;
65328;SDS011;51941;52.210;5.158;2023-05-19T07:50:02;12.40;;;4.00;;
65328;SDS011;51941;52.210;5.158;2023-05-19T07:52:29;9.00;;;3.80;;
65328;SDS011;51941;52.210;5.158;2023-05-19T07:54:57;11.73;;;3.92;;
65328;SDS011;51941;52.210;5.158;2023-05-19T07:57:24;8.05;;;3.90;;
65328;SDS011;51941;52.210;5.158;2023-05-19T07:59:53;7.82;;;3.95;;
65328;SDS011;51941;52.210;5.158;2023-05-19T08:02:19;10.43;;;3.58;;
65328;SDS011;51941;52.210;5.158;2023-05-19T08:04:46;9.48;;;3.70;;
65328;SDS011;51941;52.210;5.158;2023-05-19T08:07:13;6.38;;;3.28;;
65328;SDS011;51941;52.210;5.158;2023-05-19T08:09:40;6.93;;;2.92;;
65328;SDS011;51941;52.210;5.158;2023-05-19T08:12:08;9.77;;;3.60;;
65328;SDS011;51941;52.210;5.158;2023-05-19T08:14:34;10.65;;;3.40;;
65328;SDS011;51941;52.210;5.158;2023-05-19T08:17:01;7.68;;;2.88;;
65328;SDS011;51941;52.210;5.158;2023-05-19T08:19:28;10.43;;;3.25;;
65328;SDS011;51941;52.210;5.158;2023-05-19T08:21:54;7.22;;;3.17;;
65328;SDS011;51941;52.210;5.158;2023-05-19T08:24:22;5.60;;;2.95;;
65328;SDS011;51941;52.210;5.158;2023-05-19T08:26:48;8.38;;;2.47;;
65328;SDS011;51941;52.210;5.158;2023-05-19T08:29:16;7.68;;;2.80;;
65328;SDS011;51941;52.210;5.158;2023-05-19T08:31:43;8.57;;;2.70;;
65328;SDS011;51941;52.210;5.158;2023-05-19T08:34:10;7.95;;;2.83;;
65328;SDS011;51941;52.210;5.158;2023-05-19T08:36:36;8.00;;;2.78;;
65328;SDS011;51941;52.210;5.158;2023-05-19T08:39:04;6.65;;;2.40;;
65328;SDS011;51941;52.210;5.158;2023-05-19T08:41:31;5.95;;;2.45;;
65328;SDS011;51941;52.210;5.158;2023-05-19T08:43:58;6.40;;;2.38;;
65328;SDS011;51941;52.210;5.158;2023-05-19T08:46:29;7.53;;;2.90;;
65328;SDS011;51941;52.210;5.158;2023-05-19T08:48:57;7.10;;;2.47;;
65328;SDS011;51941;52.210;5.158;2023-05-19T08:51:30;11.65;;;2.72;;
65328;SDS011;51941;52.210;5.158;2023-05-19T08:54:03;7.40;;;2.60;;
65328;SDS011;51941;52.210;5.158;2023-05-19T08:56:37;9.20;;;2.65;;
65328;SDS011;51941;52.210;5.158;2023-05-19T08:59:04;10.80;;;2.80;;
65328;SDS011;51941;52.210;5.158;2023-05-19T09:01:33;12.90;;;2.78;;
65328;SDS011;51941;52.210;5.158;2023-05-19T09:04:00;8.18;;;2.50;;
65328;SDS011;51941;52.210;5.158;2023-05-19T09:06:28;9.98;;;2.53;;
65328;SDS011;51941;52.210;5.158;2023-05-19T09:08:56;5.57;;;2.50;;
65328;SDS011;51941;52.210;5.158;2023-05-19T09:11:23;4.43;;;2.15;;
65328;SDS011;51941;52.210;5.158;2023-05-19T09:13:50;11.40;;;2.53;;
65328;SDS011;51941;52.210;5.158;2023-05-19T09:16:17;8.38;;;1.98;;
65328;SDS011;51941;52.210;5.158;2023-05-19T09:18:53;5.70;;;2.30;;
65328;SDS011;51941;52.210;5.158;2023-05-19T09:21:25;9.32;;;2.85;;
65328;SDS011;51941;52.210;5.158;2023-05-19T09:23:55;8.55;;;2.70;;
65328;SDS011;51941;52.210;5.158;2023-05-19T09:26:21;6.70;;;2.75;;
65328;SDS011;51941;52.210;5.158;2023-05-19T09:28:48;8.25;;;2.63;;
65328;SDS011;51941;52.210;5.158;2023-05-19T09:31:15;6.03;;;2.40;;
65328;SDS011;51941;52.210;5.158;2023-05-19T09:33:42;7.95;;;2.72;;
65328;SDS011;51941;52.210;5.158;2023-05-19T09:36:10;7.72;;;2.58;;
65328;SDS011;51941;52.210;5.158;2023-05-19T09:38:37;10.95;;;2.50;;
65328;SDS011;51941;52.210;5.158;2023-05-19T09:41:05;8.82;;;2.88;;
65328;SDS011;51941;52.210;5.158;2023-05-19T09:43:33;7.60;;;2.75;;
65328;SDS011;51941;52.210;5.158;2023-05-19T09:46:02;6.32;;;1.90;;
65328;SDS011;51941;52.210;5.158;2023-05-19T09:48:29;7.10;;;2.42;;
65328;SDS011;51941;52.210;5.158;2023-05-19T09:50:56;9.32;;;2.65;;
65328;SDS011;51941;52.210;5.158;2023-05-19T09:53:24;7.60;;;2.17;;
65328;SDS011;51941;52.210;5.158;2023-05-19T09:55:53;6.95;;;2.70;;
65328;SDS011;51941;52.210;5.158;2023-05-19T09:58:21;5.93;;;2.30;;
65328;SDS011;51941;52.210;5.158;2023-05-19T10:00:49;8.13;;;2.60;;
65328;SDS011;51941;52.210;5.158;2023-05-19T10:03:16;9.13;;;2.40;;
65328;SDS011;51941;52.210;5.158;2023-05-19T10:05:44;9.00;;;2.65;;
65328;SDS011;51941;52.210;5.158;2023-05-19T10:08:12;7.57;;;2.20;;
65328;SDS011;51941;52.210;5.158;2023-05-19T10:10:43;6.63;;;2.25;;
65328;SDS011;51941;52.210;5.158;2023-05-19T10:13:11;6.82;;;2.20;;
65328;SDS011;51941;52.210;5.158;2023-05-19T10:15:38;7.57;;;2.58;;
65328;SDS011;51941;52.210;5.158;2023-05-19T10:18:06;7.65;;;2.20;;
65328;SDS011;51941;52.210;5.158;2023-05-19T10:20:34;9.38;;;2.50;;
65328;SDS011;51941;52.210;5.158;2023-05-19T10:23:01;5.93;;;2.25;;
65328;SDS011;51941;52.210;5.158;2023-05-19T10:25:28;4.90;;;2.13;;
65328;SDS011;51941;52.210;5.158;2023-05-19T10:28:00;10.83;;;2.27;;
65328;SDS011;51941;52.210;5.158;2023-05-19T10:30:32;6.55;;;2.63;;
65328;SDS011;51941;52.210;5.158;2023-05-19T10:33:03;8.75;;;2.63;;
65328;SDS011;51941;52.210;5.158;2023-05-19T10:35:41;10.90;;;2.40;;
65328;SDS011;51941;52.210;5.158;2023-05-19T10:38:33;5.45;;;1.85;;
65328;SDS011;51941;52.210;5.158;2023-05-19T10:41:09;7.88;;;2.45;;
65328;SDS011;51941;52.210;5.158;2023-05-19T10:43:48;7.90;;;2.50;;
65328;SDS011;51941;52.210;5.158;2023-05-19T10:46:22;7.07;;;2.65;;
65328;SDS011;51941;52.210;5.158;2023-05-19T10:48:50;7.75;;;2.83;;
65328;SDS011;51941;52.210;5.158;2023-05-19T10:51:16;6.47;;;1.95;;
65328;SDS011;51941;52.210;5.158;2023-05-19T10:53:43;7.47;;;2.30;;
65328;SDS011;51941;52.210;5.158;2023-05-19T10:56:11;8.05;;;2.20;;
65328;SDS011;51941;52.210;5.158;2023-05-19T10:58:55;6.90;;;2.10;;
65328;SDS011;51941;52.210;5.158;2023-05-19T11:01:21;6.55;;;2.10;;
65328;SDS011;51941;52.210;5.158;2023-05-19T11:03:56;5.63;;;2.20;;
65328;SDS011;51941;52.210;5.158;2023-05-19T11:06:24;6.75;;;2.17;;
65328;SDS011;51941;52.210;5.158;2023-05-19T11:08:52;9.00;;;2.83;;
65328;SDS011;51941;52.210;5.158;2023-05-19T11:11:21;6.83;;;2.20;;
65328;SDS011;51941;52.210;5.158;2023-05-19T11:13:49;6.30;;;2.05;;
65328;SDS011;51941;52.210;5.158;2023-05-19T11:16:20;5.35;;;2.45;;
65328;SDS011;51941;52.210;5.158;2023-05-19T11:18:52;6.95;;;2.20;;
65328;SDS011;51941;52.210;5.158;2023-05-19T11:21:19;7.68;;;2.65;;
65328;SDS011;51941;52.210;5.158;2023-05-19T11:23:48;11.90;;;2.60;;
65328;SDS011;51941;52.210;5.158;2023-05-19T11:26:16;9.93;;;2.75;;
65328;SDS011;51941;52.210;5.158;2023-05-19T11:29:07;7.57;;;2.28;;
65328;SDS011;51941;52.210;5.158;2023-05-19T11:31:35;6.65;;;2.22;;
65328;SDS011;51941;52.210;5.158;2023-05-19T11:34:04;7.07;;;2.40;;
65328;SDS011;51941;52.210;5.158;2023-05-19T11:36:32;9.82;;;2.13;;
65328;SDS011;51941;52.210;5.158;2023-05-19T11:39:00;5.40;;;2.10;;
65328;SDS011;51941;52.210;5.158;2023-05-19T11:41:27;8.70;;;2.22;;
65328;SDS011;51941;52.210;5.158;2023-05-19T11:43:55;6.25;;;2.17;;
65328;SDS011;51941;52.210;5.158;2023-05-19T11:46:21;6.97;;;2.42;;
65328;SDS011;51941;52.210;5.158;2023-05-19T11:48:50;7.45;;;2.20;;
65328;SDS011;51941;52.210;5.158;2023-05-19T11:51:19;8.27;;;2.92;;
65328;SDS011;51941;52.210;5.158;2023-05-19T11:53:47;7.03;;;2.08;;
65328;SDS011;51941;52.210;5.158;2023-05-19T11:56:18;7.13;;;2.33;;
65328;SDS011;51941;52.210;5.158;2023-05-19T11:58:46;9.50;;;2.63;;
65328;SDS011;51941;52.210;5.158;2023-05-19T12:01:13;8.00;;;2.40;;
65328;SDS011;51941;52.210;5.158;2023-05-19T12:03:40;5.97;;;2.42;;
65328;SDS011;51941;52.210;5.158;2023-05-19T12:06:08;8.07;;;2.40;;
65328;SDS011;51941;52.210;5.158;2023-05-19T12:08:35;7.93;;;2.80;;
65328;SDS011;51941;52.210;5.158;2023-05-19T12:11:03;8.75;;;2.83;;
65328;SDS011;51941;52.210;5.158;2023-05-19T12:13:30;8.60;;;2.83;;
65328;SDS011;51941;52.210;5.158;2023-05-19T12:15:58;5.35;;;2.20;;
65328;SDS011;51941;52.210;5.158;2023-05-19T12:18:26;8.70;;;2.63;;
65328;SDS011;51941;52.210;5.158;2023-05-19T12:20:55;5.93;;;2.40;;
65328;SDS011;51941;52.210;5.158;2023-05-19T12:23:23;7.50;;;2.70;;
65328;SDS011;51941;52.210;5.158;2023-05-19T12:25:51;10.75;;;2.88;;
65328;SDS011;51941;52.210;5.158;2023-05-19T12:28:18;7.70;;;2.90;;
65328;SDS011;51941;52.210;5.158;2023-05-19T12:30:46;6.05;;;2.50;;
65328;SDS011;51941;52.210;5.158;2023-05-19T12:33:16;3.83;;;2.30;;
65328;SDS011;51941;52.210;5.158;2023-05-19T12:35:43;8.30;;;2.60;;
65328;SDS011;51941;52.210;5.158;2023-05-19T12:38:12;5.65;;;2.50;;
65328;SDS011;51941;52.210;5.158;2023-05-19T12:40:41;7.95;;;2.90;;
65328;SDS011;51941;52.210;5.158;2023-05-19T12:43:08;9.70;;;2.95;;
65328;SDS011;51941;52.210;5.158;2023-05-19T12:45:45;11.68;;;2.80;;
65328;SDS011;51941;52.210;5.158;2023-05-19T12:48:11;8.10;;;2.63;;
65328;SDS011;51941;52.210;5.158;2023-05-19T12:50:44;6.45;;;2.60;;
65328;SDS011;51941;52.210;5.158;2023-05-19T12:53:10;9.20;;;2.72;;
65328;SDS011;51941;52.210;5.158;2023-05-19T12:55:38;9.32;;;2.40;;
65328;SDS011;51941;52.210;5.158;2023-05-19T12:58:10;8.27;;;3.08;;
65328;SDS011;51941;52.210;5.158;2023-05-19T13:00:40;7.03;;;2.50;;
65328;SDS011;51941;52.210;5.158;2023-05-19T13:03:09;6.55;;;2.38;;
65328;SDS011;51941;52.210;5.158;2023-05-19T13:05:41;9.55;;;2.30;;
65328;SDS011;51941;52.210;5.158;2023-05-19T13:10:38;11.05;;;3.53;;
65328;SDS011;51941;52.210;5.158;2023-05-19T13:13:07;7.50;;;2.35;;
65328;SDS011;51941;52.210;5.158;2023-05-19T13:15:41;6.00;;;2.28;;
65328;SDS011;51941;52.210;5.158;2023-05-19T13:18:09;9.88;;;2.58;;
65328;SDS011;51941;52.210;5.158;2023-05-19T13:20:37;10.27;;;2.95;;
65328;SDS011;51941;52.210;5.158;2023-05-19T13:23:05;7.18;;;2.38;;
65328;SDS011;51941;52.210;5.158;2023-05-19T13:25:32;6.70;;;2.00;;
65328;SDS011;51941;52.210;5.158;2023-05-19T13:27:59;5.75;;;2.20;;
65328;SDS011;51941;52.210;5.158;2023-05-19T13:30:29;6.22;;;2.33;;
65328;SDS011;51941;52.210;5.158;2023-05-19T13:33:01;4.65;;;1.90;;
65328;SDS011;51941;52.210;5.158;2023-05-19T13:35:28;5.63;;;2.30;;
65328;SDS011;51941;52.210;5.158;2023-05-19T13:38:00;8.43;;;2.53;;
65328;SDS011;51941;52.210;5.158;2023-05-19T13:40:28;5.85;;;2.22;;
65328;SDS011;51941;52.210;5.158;2023-05-19T13:42:56;6.13;;;1.98;;
65328;SDS011;51941;52.210;5.158;2023-05-19T13:45:23;4.63;;;2.05;;
65328;SDS011;51941;52.210;5.158;2023-05-19T13:47:50;8.40;;;2.20;;
65328;SDS011;51941;52.210;5.158;2023-05-19T13:50:18;5.50;;;2.10;;
65328;SDS011;51941;52.210;5.158;2023-05-19T13:52:44;9.57;;;2.28;;
65328;SDS011;51941;52.210;5.158;2023-05-19T13:55:11;5.32;;;2.00;;
65328;SDS011;51941;52.210;5.158;2023-05-19T13:57:38;9.52;;;2.85;;
65328;SDS011;51941;52.210;5.158;2023-05-19T14:00:05;8.38;;;2.35;;
65328;SDS011;51941;52.210;5.158;2023-05-19T14:02:40;8.63;;;2.80;;
65328;SDS011;51941;52.210;5.158;2023-05-19T14:05:07;5.80;;;2.33;;
65328;SDS011;51941;52.210;5.158;2023-05-19T14:07:35;7.15;;;2.50;;
65328;SDS011;51941;52.210;5.158;2023-05-19T14:10:02;6.72;;;2.78;;
65328;SDS011;51941;52.210;5.158;2023-05-19T14:12:31;7.63;;;2.95;;
65328;SDS011;51941;52.210;5.158;2023-05-19T14:14:59;6.47;;;2.55;;
65328;SDS011;51941;52.210;5.158;2023-05-19T14:17:26;7.87;;;1.97;;
65328;SDS011;51941;52.210;5.158;2023-05-19T14:19:53;7.22;;;2.10;;
65328;SDS011;51941;52.210;5.158;2023-05-19T14:22:19;7.97;;;2.30;;
65328;SDS011;51941;52.210;5.158;2023-05-19T14:24:48;5.80;;;2.20;;
65328;SDS011;51941;52.210;5.158;2023-05-19T14:27:14;7.85;;;2.30;;
65328;SDS011;51941;52.210;5.158;2023-05-19T14:29:41;4.30;;;2.00;;
65328;SDS011;51941;52.210;5.158;2023-05-19T14:32:08;5.72;;;2.10;;
65328;SDS011;51941;52.210;5.158;2023-05-19T14:34:34;5.53;;;1.90;;
65328;SDS011;51941;52.210;5.158;2023-05-19T14:37:01;8.82;;;2.40;;
65328;SDS011;51941;52.210;5.158;2023-05-19T14:39:28;4.50;;;1.95;;
65328;SDS011;51941;52.210;5.158;2023-05-19T14:41:56;7.78;;;1.83;;
65328;SDS011;51941;52.210;5.158;2023-05-19T14:44:28;6.25;;;2.08;;
65328;SDS011;51941;52.210;5.158;2023-05-19T14:46:55;5.75;;;2.30;;
65328;SDS011;51941;52.210;5.158;2023-05-19T14:49:22;7.97;;;2.60;;
65328;SDS011;51941;52.210;5.158;2023-05-19T14:51:48;5.57;;;2.17;;
65328;SDS011;51941;52.210;5.158;2023-05-19T14:54:15;6.80;;;1.83;;
65328;SDS011;51941;52.210;5.158;2023-05-19T14:56:42;7.00;;;2.03;;
65328;SDS011;51941;52.210;5.158;2023-05-19T14:59:10;6.97;;;1.95;;
65328;SDS011;51941;52.210;5.158;2023-05-19T15:01:36;3.97;;;1.75;;